createdAt,value
2018-02-24T00:01:58.029Z,14.68
2018-02-24T00:04:24.560Z,13.90
2018-02-24T00:06:50.792Z,14.68
2018-02-24T00:09:17.147Z,13.13
2018-02-24T00:11:43.504Z,14.20
2018-02-24T00:14:09.877Z,12.88
2018-02-24T00:16:36.325Z,13.73
2018-02-24T00:19:02.828Z,12.68
2018-02-24T00:21:29.133Z,13.15
2018-02-24T00:23:55.358Z,14.32
2018-02-24T00:26:21.711Z,13.65
2018-02-24T00:28:47.979Z,13.95
2018-02-24T00:31:14.205Z,12.88
2018-02-24T00:33:40.593Z,12.55
2018-02-24T00:36:06.966Z,13.43
2018-02-24T00:38:33.416Z,12.45
2018-02-24T00:40:59.803Z,13.60
2018-02-24T00:43:26.118Z,12.52
2018-02-24T00:45:52.437Z,13.55
2018-02-24T00:48:18.958Z,13.32
2018-02-24T00:50:45.364Z,13.32
2018-02-24T00:53:11.654Z,12.50
2018-02-24T00:55:37.908Z,12.00
2018-02-24T00:58:04.244Z,13.62
2018-02-24T01:00:30.541Z,13.60
2018-02-24T01:02:56.808Z,13.15
2018-02-24T01:05:23.205Z,13.65
2018-02-24T01:07:49.649Z,14.38
2018-02-24T01:10:16.058Z,14.02
2018-02-24T01:12:42.343Z,14.00
2018-02-24T01:15:08.647Z,14.27
2018-02-24T01:17:34.901Z,12.93
2018-02-24T01:20:01.359Z,13.60
2018-02-24T01:22:27.661Z,13.43
2018-02-24T01:24:53.987Z,13.48
2018-02-24T01:27:20.313Z,12.20
2018-02-24T01:29:46.724Z,14.00
2018-02-24T01:32:13.012Z,12.90
2018-02-24T01:34:39.453Z,12.40
2018-02-24T01:37:05.751Z,13.40
2018-02-24T01:39:32.112Z,13.60
2018-02-24T01:41:58.393Z,13.43
2018-02-24T01:44:24.718Z,12.80
2018-02-24T01:46:51.033Z,12.88
2018-02-24T01:49:17.492Z,12.75
2018-02-24T01:51:43.805Z,13.02
2018-02-24T01:54:10.282Z,12.05
2018-02-24T01:56:36.550Z,11.95
2018-02-24T01:59:02.801Z,11.55
2018-02-24T02:01:29.091Z,14.18
2018-02-24T02:03:55.405Z,13.57
2018-02-24T02:06:21.715Z,13.40
2018-02-24T02:08:47.981Z,13.15
2018-02-24T02:11:14.240Z,13.32
2018-02-24T02:13:40.569Z,15.10
2018-02-24T02:16:06.910Z,13.95
2018-02-24T02:18:33.461Z,14.00
2018-02-24T02:20:59.819Z,12.93
2018-02-24T02:23:26.107Z,13.60
2018-02-24T02:25:52.500Z,12.00
2018-02-24T02:28:18.831Z,14.05
2018-02-24T02:30:45.315Z,13.60
2018-02-24T02:33:11.594Z,12.20
2018-02-24T02:35:37.873Z,14.13
2018-02-24T02:38:04.154Z,12.98
2018-02-24T02:40:30.490Z,14.00
2018-02-24T02:42:56.825Z,13.10
2018-02-24T02:45:23.290Z,13.35
2018-02-24T02:47:49.639Z,13.40
2018-02-24T02:50:15.935Z,14.10
2018-02-24T02:52:42.231Z,14.32
2018-02-24T02:55:08.539Z,12.77
2018-02-24T02:57:34.859Z,13.15
2018-02-24T03:00:01.104Z,12.45
2018-02-24T03:02:27.449Z,13.85
2018-02-24T03:04:53.733Z,12.90
2018-02-24T03:07:20.053Z,13.48
2018-02-24T03:09:46.482Z,14.02
2018-02-24T03:12:12.816Z,13.77
2018-02-24T03:14:39.253Z,15.35
2018-02-24T03:17:05.667Z,14.20
2018-02-24T03:19:31.975Z,14.13
2018-02-24T03:21:58.180Z,14.18
2018-02-24T03:24:24.724Z,14.23
2018-02-24T03:26:51.058Z,13.57
2018-02-24T03:29:17.438Z,14.40
2018-02-24T03:31:43.753Z,14.23
2018-02-24T03:34:10.036Z,14.75
2018-02-24T03:36:36.434Z,14.90
2018-02-24T03:39:02.747Z,14.82
2018-02-24T03:41:29.130Z,16.08
2018-02-24T03:43:55.354Z,15.40
2018-02-24T03:46:25.480Z,16.77
2018-02-24T03:48:51.797Z,17.83
2018-02-24T03:51:17.995Z,19.70
2018-02-24T03:53:44.533Z,17.30
2018-02-24T03:56:10.858Z,20.30
2018-02-24T03:58:37.142Z,18.08
2018-02-24T04:01:03.514Z,20.33
2018-02-24T04:03:29.790Z,18.65
2018-02-24T04:05:56.138Z,18.77
2018-02-24T04:08:22.484Z,19.17
2018-02-24T04:10:48.825Z,19.37
2018-02-24T04:13:15.197Z,16.92
2018-02-24T04:15:41.539Z,19.50
2018-02-24T04:18:07.828Z,18.25
2018-02-24T04:20:34.322Z,17.80
2018-02-24T04:23:00.738Z,18.30
2018-02-24T04:25:27.097Z,19.42
2018-02-24T04:27:53.575Z,17.95
2018-02-24T04:30:19.927Z,18.75
2018-02-24T04:32:46.414Z,17.83
2018-02-24T04:35:12.744Z,17.85
2018-02-24T04:37:39.074Z,18.08
2018-02-24T04:40:05.488Z,18.77
2018-02-24T04:42:31.929Z,17.70
2018-02-24T04:44:58.173Z,20.37
2018-02-24T04:47:24.604Z,19.35
2018-02-24T04:49:50.971Z,19.77
2018-02-24T04:52:17.426Z,16.90
2018-02-24T04:54:43.869Z,16.95
2018-02-24T04:57:10.287Z,17.48
2018-02-24T04:59:36.664Z,17.98
2018-02-24T05:02:02.959Z,16.20
2018-02-24T05:04:29.404Z,17.10
2018-02-24T05:06:55.733Z,14.25
2018-02-24T05:09:22.291Z,16.17
2018-02-24T05:11:48.622Z,16.50
2018-02-24T05:14:14.945Z,16.67
2018-02-24T05:16:41.295Z,16.48
2018-02-24T05:19:07.697Z,15.35
2018-02-24T05:21:33.975Z,14.63
2018-02-24T05:24:00.236Z,15.32
2018-02-24T05:26:26.680Z,14.80
2018-02-24T05:28:52.958Z,15.40
2018-02-24T05:31:19.361Z,15.10
2018-02-24T05:33:45.620Z,16.20
2018-02-24T05:36:11.937Z,17.12
2018-02-24T05:38:38.131Z,13.77
2018-02-24T05:41:04.664Z,17.17
2018-02-24T05:43:30.988Z,15.57
2018-02-24T05:45:57.277Z,14.80
2018-02-24T05:48:23.578Z,16.10
2018-02-24T05:50:49.843Z,15.80
2018-02-24T05:53:16.219Z,14.90
2018-02-24T05:55:42.536Z,15.63
2018-02-24T05:58:08.996Z,15.75
2018-02-24T06:00:35.304Z,16.45
2018-02-24T06:03:01.684Z,15.68
2018-02-24T06:05:27.931Z,15.60
2018-02-24T06:07:54.178Z,14.73
2018-02-24T06:10:20.518Z,16.95
2018-02-24T06:12:46.853Z,15.30
2018-02-24T06:15:13.261Z,16.20
2018-02-24T06:17:39.598Z,17.02
2018-02-24T06:20:05.892Z,15.57
2018-02-24T06:22:32.244Z,15.52
2018-02-24T06:24:58.587Z,15.25
2018-02-24T06:27:24.839Z,18.65
2018-02-24T06:29:51.161Z,15.88
2018-02-24T06:32:17.639Z,17.27
2018-02-24T06:34:44.197Z,15.48
2018-02-24T06:37:10.506Z,15.82
2018-02-24T06:39:36.938Z,13.93
2018-02-24T06:42:03.240Z,15.70
2018-02-24T06:44:29.624Z,16.23
2018-02-24T06:46:55.965Z,17.00
2018-02-24T06:49:22.456Z,17.10
2018-02-24T06:51:48.938Z,16.77
2018-02-24T06:54:15.316Z,15.65
2018-02-24T06:56:41.627Z,15.77
2018-02-24T06:59:08.016Z,15.50
2018-02-24T07:01:34.335Z,16.23
2018-02-24T07:04:00.657Z,16.05
2018-02-24T07:06:27.012Z,14.63
2018-02-24T07:08:54.159Z,17.42
2018-02-24T07:11:20.493Z,16.17
2018-02-24T07:13:46.943Z,16.80
2018-02-24T07:16:13.241Z,14.57
2018-02-24T07:18:39.482Z,16.35
2018-02-24T07:21:05.991Z,17.08
2018-02-24T07:23:32.219Z,12.88
2018-02-24T07:25:58.500Z,16.33
2018-02-24T07:28:24.980Z,16.23
2018-02-24T07:30:51.395Z,16.50
2018-02-24T07:33:17.735Z,15.95
2018-02-24T07:35:44.067Z,16.52
2018-02-24T07:38:10.388Z,16.08
2018-02-24T07:40:36.796Z,16.77
2018-02-24T07:43:03.162Z,16.10
2018-02-24T07:45:29.454Z,17.30
2018-02-24T07:47:55.720Z,17.05
2018-02-24T07:50:22.015Z,17.17
2018-02-24T07:52:48.430Z,17.98
2018-02-24T07:55:14.729Z,16.95
2018-02-24T07:57:40.982Z,18.62
2018-02-24T08:00:07.534Z,17.58
2018-02-24T08:02:33.922Z,18.42
2018-02-24T08:05:00.202Z,19.00
2018-02-24T08:07:26.538Z,18.50
2018-02-24T08:09:52.934Z,19.33
2018-02-24T08:12:19.230Z,19.77
2018-02-24T08:14:45.533Z,20.67
2018-02-24T08:17:11.893Z,19.67
2018-02-24T08:19:38.256Z,19.77
2018-02-24T08:22:04.823Z,20.33
2018-02-24T08:24:31.234Z,19.50
2018-02-24T08:26:57.534Z,19.57
2018-02-24T08:29:24.095Z,19.03
2018-02-24T08:31:50.393Z,18.40
2018-02-24T08:34:16.796Z,19.20
2018-02-24T08:36:43.077Z,19.23
2018-02-24T08:39:09.652Z,17.57
2018-02-24T08:41:36.187Z,18.50
2018-02-24T08:44:02.306Z,18.73
2018-02-24T08:46:28.625Z,19.30
2018-02-24T08:48:54.998Z,18.30
2018-02-24T08:51:21.364Z,18.00
2018-02-24T08:53:47.861Z,18.37
2018-02-24T08:56:14.502Z,18.77
2018-02-24T08:58:40.787Z,18.63
2018-02-24T09:01:07.115Z,19.63
2018-02-24T09:03:33.402Z,19.30
2018-02-24T09:05:59.721Z,19.23
2018-02-24T09:08:26.080Z,18.97
2018-02-24T09:10:52.352Z,20.30
2018-02-24T09:13:18.681Z,18.93
2018-02-24T09:15:44.935Z,19.17
2018-02-24T09:18:11.267Z,19.00
2018-02-24T09:20:37.564Z,18.67
2018-02-24T09:23:03.951Z,19.37
2018-02-24T09:25:30.397Z,19.80
2018-02-24T09:27:56.665Z,18.17
2018-02-24T09:30:23.185Z,17.67
2018-02-24T09:32:49.564Z,18.67
2018-02-24T09:35:15.857Z,17.37
2018-02-24T09:37:42.097Z,17.67
2018-02-24T09:40:08.394Z,19.27
2018-02-24T09:42:34.719Z,17.37
2018-02-24T09:45:01.068Z,17.13
2018-02-24T09:47:27.343Z,18.83
2018-02-24T09:49:53.880Z,17.57
2018-02-24T09:52:20.362Z,18.90
2018-02-24T09:54:46.624Z,19.17
2018-02-24T09:57:12.868Z,19.40
2018-02-24T09:59:39.224Z,19.20
2018-02-24T10:02:05.412Z,20.03
2018-02-24T10:04:31.803Z,19.73
2018-02-24T10:06:57.989Z,19.27
2018-02-24T10:09:24.234Z,20.57
2018-02-24T10:11:50.550Z,20.83
2018-02-24T10:14:16.923Z,20.80
2018-02-24T10:16:43.163Z,21.30
2018-02-24T10:19:09.610Z,22.70
2018-02-24T10:21:35.927Z,21.83
2018-02-24T10:24:02.172Z,22.77
2018-02-24T10:26:28.417Z,22.27
2018-02-24T10:28:54.708Z,22.93
2018-02-24T10:31:20.935Z,22.97
2018-02-24T10:33:47.177Z,22.67
2018-02-24T10:36:13.518Z,22.50
2018-02-24T10:38:39.825Z,24.27
2018-02-24T10:41:06.207Z,24.00
2018-02-24T10:43:32.420Z,21.67
2018-02-24T10:45:58.779Z,20.37
2018-02-24T10:48:25.290Z,19.37
2018-02-24T10:50:51.589Z,20.97
2018-02-24T10:53:18.016Z,19.23
2018-02-24T10:55:44.403Z,18.87
2018-02-24T10:58:10.716Z,18.80
2018-02-24T11:00:36.932Z,19.57
2018-02-24T11:03:03.260Z,19.97
2018-02-24T11:05:29.534Z,19.70
2018-02-24T11:07:56.096Z,20.03
2018-02-24T11:10:22.395Z,19.63
2018-02-24T11:12:48.759Z,22.47
2018-02-24T11:15:15.093Z,23.10
2018-02-24T11:17:41.517Z,21.03
2018-02-24T11:20:07.964Z,20.20
2018-02-24T11:22:34.521Z,18.03
2018-02-24T11:25:00.782Z,17.60
2018-02-24T11:27:27.008Z,17.30
2018-02-24T11:29:53.285Z,20.30
2018-02-24T11:32:19.600Z,21.73
2018-02-24T11:34:46.203Z,17.60
2018-02-24T11:37:12.559Z,16.97
2018-02-24T11:39:39.923Z,16.70
2018-02-24T11:42:06.278Z,17.17
2018-02-24T11:44:32.688Z,16.03
2018-02-24T11:46:58.830Z,16.77
2018-02-24T11:49:25.208Z,14.27
2018-02-24T11:51:51.468Z,15.00
2018-02-24T11:54:17.844Z,14.73
2018-02-24T11:56:44.116Z,14.40
2018-02-24T11:59:10.604Z,13.63
2018-02-24T12:01:36.808Z,13.97
2018-02-24T12:04:03.061Z,13.63
2018-02-24T12:06:29.405Z,14.20
2018-02-24T12:08:55.682Z,13.40
2018-02-24T12:11:21.977Z,14.63
2018-02-24T12:13:48.238Z,14.33
2018-02-24T12:16:14.684Z,13.33
2018-02-24T12:18:40.975Z,14.60
2018-02-24T12:21:07.239Z,13.53
2018-02-24T12:23:33.520Z,13.03
2018-02-24T12:25:59.793Z,13.00
2018-02-24T12:28:26.164Z,13.53
2018-02-24T12:30:52.569Z,13.00
2018-02-24T12:33:18.755Z,15.07
2018-02-24T12:35:45.014Z,13.50
2018-02-24T12:38:11.278Z,14.53
2018-02-24T12:40:37.490Z,14.73
2018-02-24T12:43:03.772Z,14.17
2018-02-24T12:45:30.033Z,14.73
2018-02-24T12:47:56.318Z,13.97
2018-02-24T12:50:22.690Z,14.60
2018-02-24T12:52:48.935Z,14.20
2018-02-24T12:55:15.366Z,13.97
2018-02-24T12:57:41.721Z,14.90
2018-02-24T13:00:07.977Z,14.10
2018-02-24T13:02:34.359Z,15.17
2018-02-24T13:05:00.677Z,13.83
2018-02-24T13:07:26.934Z,13.23
2018-02-24T13:09:53.315Z,12.73
2018-02-24T13:12:19.625Z,14.00
2018-02-24T13:14:46.009Z,14.73
2018-02-24T13:17:12.648Z,14.43
2018-02-24T13:19:38.957Z,12.23
2018-02-24T13:22:05.233Z,12.33
2018-02-24T13:24:31.597Z,13.13
2018-02-24T13:26:57.998Z,12.97
2018-02-24T13:29:24.499Z,13.47
2018-02-24T13:31:51.014Z,13.20
2018-02-24T13:34:17.359Z,12.50
2018-02-24T13:36:43.741Z,11.93
2018-02-24T13:39:10.343Z,12.43
2018-02-24T13:41:36.766Z,11.30
2018-02-24T13:44:03.195Z,11.63
2018-02-24T13:46:29.621Z,12.07
2018-02-24T13:48:55.964Z,13.10
2018-02-24T13:51:22.270Z,12.73
2018-02-24T13:53:48.577Z,11.37
2018-02-24T13:56:14.956Z,10.80
2018-02-24T13:58:41.305Z,13.63
2018-02-24T14:01:07.716Z,10.43
2018-02-24T14:03:33.977Z,10.73
2018-02-24T14:06:00.194Z,10.13
2018-02-24T14:08:26.551Z,10.23
2018-02-24T14:10:52.907Z,10.97
2018-02-24T14:13:19.178Z,10.40
2018-02-24T14:15:45.481Z,8.83
2018-02-24T14:18:11.723Z,8.83
2018-02-24T14:20:37.984Z,8.57
2018-02-24T14:23:04.282Z,7.33
2018-02-24T14:25:30.501Z,6.77
2018-02-24T14:27:56.814Z,6.53
2018-02-24T14:30:23.093Z,7.20
2018-02-24T14:32:49.476Z,6.70
2018-02-24T14:35:15.692Z,7.33
2018-02-24T14:37:41.980Z,7.23
2018-02-24T14:40:08.280Z,7.03
2018-02-24T14:42:34.515Z,6.40
2018-02-24T14:45:00.811Z,5.60
2018-02-24T14:47:27.108Z,5.30
2018-02-24T14:49:53.436Z,4.97
2018-02-24T14:52:19.844Z,5.22
2018-02-24T14:54:46.335Z,5.53
2018-02-24T14:57:12.657Z,4.93
2018-02-24T14:59:39.042Z,5.93
2018-02-24T15:02:05.553Z,6.40
2018-02-24T15:04:31.818Z,6.25
2018-02-24T15:06:58.148Z,5.65
2018-02-24T15:09:24.460Z,5.72
2018-02-24T15:11:50.788Z,6.25
2018-02-24T15:14:17.140Z,6.32
2018-02-24T15:16:43.413Z,5.43
2018-02-24T15:19:09.740Z,6.65
2018-02-24T15:21:36.089Z,5.95
2018-02-24T15:24:02.375Z,6.37
2018-02-24T15:26:28.645Z,4.93
2018-02-24T15:28:54.953Z,5.80
2018-02-24T15:31:21.322Z,5.85
2018-02-24T15:33:47.639Z,5.07
2018-02-24T15:36:14.066Z,5.72
2018-02-24T15:38:40.379Z,5.28
2018-02-24T15:41:06.746Z,5.45
2018-02-24T15:43:33.040Z,5.57
2018-02-24T15:45:59.446Z,6.10
2018-02-24T15:48:25.674Z,6.45
2018-02-24T15:50:51.904Z,5.87
2018-02-24T15:53:18.216Z,5.65
2018-02-24T15:55:44.637Z,5.95
2018-02-24T15:58:10.842Z,5.68
2018-02-24T16:00:37.050Z,6.15
2018-02-24T16:03:03.501Z,6.05
2018-02-24T16:05:29.824Z,6.40
2018-02-24T16:07:56.046Z,4.85
2018-02-24T16:10:22.367Z,4.93
2018-02-24T16:12:48.746Z,11.80
2018-02-24T16:15:15.101Z,6.55
2018-02-24T16:17:41.382Z,8.05
2018-02-24T16:20:07.663Z,9.52
2018-02-24T16:22:34.152Z,6.62
2018-02-24T16:25:00.520Z,9.05
2018-02-24T16:27:26.804Z,6.10
2018-02-24T16:29:53.196Z,5.35
2018-02-24T16:32:19.483Z,5.87
2018-02-24T16:34:45.979Z,5.57
2018-02-24T16:37:12.306Z,5.25
2018-02-24T16:39:38.682Z,5.55
2018-02-24T16:42:05.135Z,5.40
2018-02-24T16:44:31.515Z,8.90
2018-02-24T16:46:57.811Z,5.57
2018-02-24T16:49:24.324Z,5.28
2018-02-24T16:51:50.666Z,6.10
2018-02-24T16:54:17.092Z,5.07
2018-02-24T16:56:43.440Z,6.37
2018-02-24T16:59:09.870Z,5.85
2018-02-24T17:01:36.280Z,6.78
2018-02-24T17:04:02.759Z,7.00
2018-02-24T17:06:29.027Z,6.03
2018-02-24T17:08:55.377Z,7.68
2018-02-24T17:11:21.774Z,6.90
2018-02-24T17:13:48.008Z,7.12
2018-02-24T17:16:14.279Z,8.93
2018-02-24T17:18:40.768Z,5.45
2018-02-24T17:21:07.183Z,4.62
2018-02-24T17:23:33.586Z,4.95
2018-02-24T17:25:59.847Z,5.78
2018-02-24T17:28:26.157Z,4.47
2018-02-24T17:30:52.509Z,4.25
2018-02-24T17:33:19.023Z,5.18
2018-02-24T17:35:45.850Z,4.85
2018-02-24T17:38:12.293Z,5.00
2018-02-24T17:40:38.532Z,5.15
2018-02-24T17:43:04.924Z,5.40
2018-02-24T17:45:31.271Z,5.68
2018-02-24T17:47:57.646Z,7.37
2018-02-24T17:50:23.997Z,5.50
2018-02-24T17:52:50.343Z,7.22
2018-02-24T17:55:16.864Z,5.95
2018-02-24T17:57:43.255Z,4.97
2018-02-24T18:00:09.557Z,4.90
2018-02-24T18:02:35.776Z,5.07
2018-02-24T18:05:02.040Z,5.07
2018-02-24T18:07:28.300Z,5.03
2018-02-24T18:09:55.249Z,4.80
2018-02-24T18:12:24.961Z,5.55
2018-02-24T18:14:51.454Z,6.37
2018-02-24T18:17:17.949Z,5.28
2018-02-24T18:19:44.278Z,5.37
2018-02-24T18:22:10.705Z,7.65
2018-02-24T18:24:37.049Z,7.37
2018-02-24T18:27:03.502Z,8.20
2018-02-24T18:29:30.017Z,7.82
2018-02-24T18:31:56.366Z,9.23
2018-02-24T18:34:22.691Z,8.50
2018-02-24T18:36:49.148Z,9.57
2018-02-24T18:39:15.489Z,8.52
2018-02-24T18:41:41.855Z,8.05
2018-02-24T18:44:08.254Z,6.03
2018-02-24T18:46:34.771Z,6.00
2018-02-24T18:49:01.046Z,5.87
2018-02-24T18:51:27.370Z,9.23
2018-02-24T18:53:53.824Z,8.60
2018-02-24T18:56:20.215Z,7.37
2018-02-24T18:58:46.767Z,7.55
2018-02-24T19:01:13.112Z,9.23
2018-02-24T19:03:39.485Z,8.88
2018-02-24T19:06:05.790Z,9.85
2018-02-24T19:08:32.087Z,7.22
2018-02-24T19:10:58.353Z,7.60
2018-02-24T19:13:24.721Z,13.20
2018-02-24T19:15:51.049Z,26.17
2018-02-24T19:18:17.453Z,23.92
2018-02-24T19:20:43.745Z,7.35
2018-02-24T19:23:10.055Z,7.65
2018-02-24T19:25:36.566Z,7.87
2018-02-24T19:28:02.929Z,11.90
2018-02-24T19:30:29.443Z,9.20
2018-02-24T19:32:55.736Z,8.27
2018-02-24T19:35:22.068Z,8.75
2018-02-24T19:37:48.522Z,9.82
2018-02-24T19:40:14.820Z,8.45
2018-02-24T19:42:41.161Z,8.50
2018-02-24T19:45:07.592Z,9.32
2018-02-24T19:47:34.089Z,9.85
2018-02-24T19:50:00.465Z,9.00
2018-02-24T19:52:26.766Z,9.82
2018-02-24T19:54:53.070Z,9.48
2018-02-24T19:57:19.363Z,8.38
2018-02-24T19:59:45.880Z,9.05
2018-02-24T20:02:12.364Z,8.32
2018-02-24T20:04:38.770Z,8.23
2018-02-24T20:07:05.084Z,9.15
2018-02-24T20:09:31.457Z,8.20
2018-02-24T20:11:57.743Z,8.85
2018-02-24T20:14:24.159Z,8.15
2018-02-24T20:16:50.505Z,7.30
2018-02-24T20:19:16.858Z,8.20
2018-02-24T20:21:43.258Z,8.57
2018-02-24T20:24:09.451Z,9.60
2018-02-24T20:26:35.825Z,8.85
2018-02-24T20:29:02.143Z,8.77
2018-02-24T20:31:28.421Z,8.63
2018-02-24T20:33:54.701Z,9.65
2018-02-24T20:36:21.035Z,8.77
2018-02-24T20:38:47.357Z,9.57
2018-02-24T20:41:13.727Z,10.27
2018-02-24T20:43:39.943Z,11.10
2018-02-24T20:46:06.341Z,10.88
2018-02-24T20:48:32.657Z,11.77
2018-02-24T20:50:58.933Z,12.35
2018-02-24T20:53:25.299Z,12.95
2018-02-24T20:55:51.671Z,15.48
2018-02-24T20:58:17.998Z,14.38
2018-02-24T21:00:44.757Z,12.75
2018-02-24T21:03:10.969Z,13.88
2018-02-24T21:05:37.191Z,13.85
2018-02-24T21:08:03.411Z,11.90
2018-02-24T21:10:29.750Z,11.48
2018-02-24T21:12:55.989Z,9.65
2018-02-24T21:15:22.197Z,9.18
2018-02-24T21:17:48.496Z,8.90
2018-02-24T21:20:14.769Z,8.25
2018-02-24T21:22:41.033Z,8.65
2018-02-24T21:25:07.352Z,7.25
2018-02-24T21:27:33.730Z,8.02
2018-02-24T21:30:00.098Z,6.82
2018-02-24T21:32:26.351Z,8.02
2018-02-24T21:34:52.684Z,7.22
2018-02-24T21:37:19.004Z,8.35
2018-02-24T21:39:45.243Z,8.85
2018-02-24T21:42:11.524Z,8.30
2018-02-24T21:44:37.781Z,7.57
2018-02-24T21:47:04.218Z,7.40
2018-02-24T21:49:30.465Z,7.78
2018-02-24T21:51:56.709Z,6.03
2018-02-24T21:54:23.065Z,7.00
2018-02-24T21:56:49.341Z,6.47
2018-02-24T21:59:15.652Z,8.23
2018-02-24T22:01:41.877Z,6.87
2018-02-24T22:04:08.188Z,6.07
2018-02-24T22:06:34.528Z,6.60
2018-02-24T22:09:00.748Z,7.28
2018-02-24T22:11:26.973Z,6.95
2018-02-24T22:13:53.218Z,6.55
2018-02-24T22:16:19.729Z,6.70
2018-02-24T22:18:46.107Z,6.97
2018-02-24T22:21:12.455Z,7.60
2018-02-24T22:23:38.934Z,7.47
2018-02-24T22:26:05.210Z,7.68
2018-02-24T22:28:31.455Z,7.80
2018-02-24T22:30:57.856Z,7.22
2018-02-24T22:33:24.279Z,7.57
2018-02-24T22:35:50.568Z,7.15
2018-02-24T22:38:16.930Z,6.22
2018-02-24T22:40:43.216Z,7.15
2018-02-24T22:43:09.472Z,6.25
2018-02-24T22:45:35.836Z,6.55
2018-02-24T22:48:08.073Z,6.68
2018-02-24T22:50:34.399Z,6.15
2018-02-24T22:53:00.652Z,6.55
2018-02-24T22:55:26.970Z,7.53
2018-02-24T22:57:53.204Z,7.22
2018-02-24T23:00:19.513Z,7.10
2018-02-24T23:02:45.821Z,7.85
2018-02-24T23:05:12.210Z,6.00
2018-02-24T23:07:38.566Z,7.25
2018-02-24T23:10:05.085Z,6.60
2018-02-24T23:12:31.398Z,7.10
2018-02-24T23:14:57.739Z,6.87
2018-02-24T23:17:24.063Z,7.32
2018-02-24T23:19:50.349Z,6.35
2018-02-24T23:22:16.798Z,4.80
2018-02-24T23:24:43.404Z,6.55
2018-02-24T23:27:09.704Z,6.68
2018-02-24T23:29:36.104Z,6.30
2018-02-24T23:32:02.522Z,6.28
2018-02-24T23:34:28.960Z,5.32
2018-02-24T23:36:55.318Z,6.20
2018-02-24T23:39:21.797Z,5.60
2018-02-24T23:41:48.108Z,6.05
2018-02-24T23:44:14.450Z,5.47
2018-02-24T23:46:40.808Z,5.47
2018-02-24T23:49:07.259Z,5.28
2018-02-24T23:51:33.624Z,5.40
2018-02-24T23:54:00.057Z,5.70
2018-02-24T23:56:26.440Z,5.35
2018-02-24T23:58:52.744Z,5.55
